createdAt,value
2022-12-25T00:01:15.974Z,13.40
2022-12-25T00:03:49.456Z,11.70
2022-12-25T00:06:19.064Z,10.20
2022-12-25T00:08:47.561Z,11.10
2022-12-25T00:11:18.473Z,8.60
2022-12-25T00:13:47.753Z,8.60
2022-12-25T00:16:22.062Z,12.10
2022-12-25T00:18:52.418Z,12.40
2022-12-25T00:21:21.956Z,12.50
2022-12-25T00:23:59.929Z,11.90
2022-12-25T00:26:28.719Z,13.50
2022-12-25T00:28:58.188Z,12.30
2022-12-25T00:31:26.935Z,12.10
2022-12-25T00:33:55.412Z,13.40
2022-12-25T00:36:24.411Z,13.10
2022-12-25T00:38:52.844Z,12.90
2022-12-25T00:41:43.062Z,22.20
2022-12-25T00:44:14.122Z,19.00
2022-12-25T00:46:42.906Z,19.70
2022-12-25T00:49:12.417Z,16.50
2022-12-25T00:51:41.555Z,18.20
2022-12-25T00:54:10.199Z,17.10
2022-12-25T00:56:38.476Z,16.60
2022-12-25T00:59:06.864Z,17.00
2022-12-25T01:01:35.318Z,17.90
2022-12-25T01:04:04.304Z,13.80
2022-12-25T01:06:33.325Z,9.90
2022-12-25T01:09:20.464Z,12.90
2022-12-25T01:11:48.932Z,13.00
2022-12-25T01:14:17.104Z,13.70
2022-12-25T01:16:45.596Z,12.90
2022-12-25T01:19:13.863Z,12.10
2022-12-25T01:21:42.069Z,12.40
2022-12-25T01:24:10.237Z,18.60
2022-12-25T01:26:38.501Z,15.40
2022-12-25T01:29:07.313Z,14.80
2022-12-25T01:31:35.913Z,15.50
2022-12-25T01:34:04.811Z,15.10
2022-12-25T01:36:33.771Z,16.50
2022-12-25T01:39:01.926Z,12.40
2022-12-25T01:41:30.579Z,12.70
2022-12-25T01:44:27.786Z,12.60
2022-12-25T01:46:56.673Z,14.00
2022-12-25T01:49:26.582Z,13.00
2022-12-25T01:51:59.467Z,15.50
2022-12-25T01:54:32.244Z,18.60
2022-12-25T01:57:05.678Z,15.00
2022-12-25T01:59:33.830Z,12.40
2022-12-25T02:02:02.637Z,15.10
2022-12-25T02:04:49.337Z,13.80
2022-12-25T02:07:20.698Z,15.20
2022-12-25T02:09:49.389Z,16.40
2022-12-25T02:12:24.216Z,13.70
2022-12-25T02:15:02.878Z,19.40
2022-12-25T02:17:38.993Z,16.10
2022-12-25T02:20:30.443Z,17.20
2022-12-25T02:23:33.307Z,19.40
2022-12-25T02:26:32.130Z,20.90
2022-12-25T02:29:26.695Z,30.30
2022-12-25T02:32:02.971Z,22.70
2022-12-25T02:34:46.396Z,27.10
2022-12-25T02:37:28.586Z,20.60
2022-12-25T02:40:06.896Z,17.90
2022-12-25T02:43:13.486Z,21.90
2022-12-25T02:46:14.682Z,23.50
2022-12-25T02:49:11.582Z,23.00
2022-12-25T02:52:04.582Z,23.50
2022-12-25T02:54:57.899Z,22.80
2022-12-25T02:57:51.066Z,15.90
2022-12-25T03:00:38.508Z,16.60
2022-12-25T03:03:29.478Z,17.30
2022-12-25T03:06:22.256Z,16.00
2022-12-25T03:09:16.495Z,14.40
2022-12-25T03:11:47.714Z,14.90
2022-12-25T03:14:34.825Z,14.30
2022-12-25T03:17:03.222Z,12.30
2022-12-25T03:19:53.582Z,11.10
2022-12-25T03:22:47.672Z,12.10
2022-12-25T03:28:05.526Z,14.20
2022-12-25T03:31:12.277Z,14.10
2022-12-25T03:34:21.962Z,26.80
2022-12-25T03:37:23.199Z,17.20
2022-12-25T03:40:25.647Z,37.50
2022-12-25T03:43:20.692Z,41.90
2022-12-25T03:46:12.730Z,26.20
2022-12-25T03:49:04.657Z,22.90
2022-12-25T03:51:55.583Z,15.30
2022-12-25T03:54:46.942Z,15.10
2022-12-25T03:57:34.029Z,13.40
2022-12-25T04:00:21.121Z,15.40
2022-12-25T04:03:08.292Z,14.00
2022-12-25T04:05:55.508Z,16.80
2022-12-25T04:08:42.510Z,21.80
2022-12-25T04:11:29.625Z,17.50
2022-12-25T04:14:17.545Z,15.70
2022-12-25T04:17:04.779Z,15.10
2022-12-25T04:19:51.798Z,13.50
2022-12-25T04:22:39.417Z,13.10
2022-12-25T04:25:27.132Z,26.40
2022-12-25T04:28:20.328Z,32.70
2022-12-25T04:31:07.741Z,33.30
2022-12-25T04:33:54.692Z,33.20
2022-12-25T04:36:23.045Z,47.30
2022-12-25T04:38:51.218Z,47.00
2022-12-25T04:41:19.490Z,34.30
2022-12-25T04:43:47.880Z,44.60
2022-12-25T04:46:16.090Z,40.80
2022-12-25T04:48:44.435Z,44.60
2022-12-25T04:51:18.457Z,43.30
2022-12-25T04:53:47.606Z,28.30
2022-12-25T04:56:17.047Z,30.10
2022-12-25T04:58:46.442Z,27.80
2022-12-25T05:01:15.686Z,27.50
2022-12-25T05:03:44.051Z,30.80
2022-12-25T05:06:12.615Z,35.10
2022-12-25T05:08:41.843Z,32.00
2022-12-25T05:11:13.268Z,33.20
2022-12-25T05:13:41.518Z,44.40
2022-12-25T05:16:21.157Z,31.60
2022-12-25T05:18:51.203Z,32.20
2022-12-25T05:21:20.824Z,31.60
2022-12-25T05:23:52.685Z,37.30
2022-12-25T05:26:23.806Z,27.80
2022-12-25T05:28:52.313Z,21.70
2022-12-25T05:31:21.006Z,19.20
2022-12-25T05:33:51.571Z,20.50
2022-12-25T05:36:20.533Z,20.20
2022-12-25T05:38:48.800Z,25.00
2022-12-25T05:41:17.285Z,25.60
2022-12-25T05:43:45.547Z,22.30
2022-12-25T05:46:14.598Z,18.70
2022-12-25T05:48:42.779Z,20.40
2022-12-25T05:51:14.243Z,19.00
2022-12-25T05:53:43.795Z,24.40
2022-12-25T05:56:12.273Z,32.30
2022-12-25T05:58:41.341Z,28.60
2022-12-25T06:01:22.363Z,29.00
2022-12-25T06:03:51.316Z,23.80
2022-12-25T06:06:19.730Z,24.30
2022-12-25T06:08:48.071Z,24.50
2022-12-25T06:11:16.311Z,28.20
2022-12-25T06:13:45.364Z,31.00
2022-12-25T06:16:14.879Z,30.60
2022-12-25T06:18:47.909Z,32.30
2022-12-25T06:21:16.562Z,28.10
2022-12-25T06:23:45.564Z,29.60
2022-12-25T06:26:17.783Z,30.20
2022-12-25T06:28:46.532Z,40.80
2022-12-25T06:31:18.002Z,50.60
2022-12-25T06:33:46.779Z,59.20
2022-12-25T06:36:23.716Z,46.10
2022-12-25T06:38:53.044Z,41.90
2022-12-25T06:41:24.525Z,42.50
2022-12-25T06:43:55.592Z,36.50
2022-12-25T06:46:27.110Z,42.60
2022-12-25T06:48:55.679Z,39.90
2022-12-25T06:51:27.762Z,39.20
2022-12-25T06:53:56.744Z,42.40
2022-12-25T06:56:27.927Z,44.10
2022-12-25T06:59:00.095Z,49.10
2022-12-25T07:01:30.146Z,59.40
2022-12-25T07:04:02.558Z,52.90
2022-12-25T07:06:31.069Z,80.10
2022-12-25T07:08:59.712Z,72.40
2022-12-25T07:11:28.764Z,50.20
2022-12-25T07:13:57.404Z,53.90
2022-12-25T07:16:26.021Z,59.40
2022-12-25T07:18:54.294Z,66.20
2022-12-25T07:21:22.493Z,66.40
2022-12-25T07:23:50.928Z,87.30
2022-12-25T07:26:19.341Z,81.90
2022-12-25T07:28:48.294Z,89.10
2022-12-25T07:31:18.284Z,90.40
2022-12-25T07:33:46.914Z,81.20
2022-12-25T07:36:15.786Z,82.00
2022-12-25T07:38:50.055Z,92.40
2022-12-25T07:41:21.280Z,90.10
2022-12-25T07:43:51.594Z,82.30
2022-12-25T07:46:21.420Z,101.40
2022-12-25T07:48:50.721Z,95.40
2022-12-25T07:51:19.694Z,137.00
2022-12-25T07:53:47.766Z,120.60
2022-12-25T07:56:20.900Z,132.30
2022-12-25T07:58:50.479Z,68.20
2022-12-25T08:01:26.751Z,37.60
2022-12-25T08:04:00.410Z,26.90
2022-12-25T08:06:35.230Z,24.20
2022-12-25T08:09:09.510Z,23.90
2022-12-25T08:11:38.487Z,22.60
2022-12-25T08:14:08.397Z,17.20
2022-12-25T08:16:39.992Z,17.00
2022-12-25T08:19:09.680Z,18.10
2022-12-25T08:21:38.457Z,13.20
2022-12-25T08:24:08.198Z,15.10
2022-12-25T08:26:36.551Z,15.10
2022-12-25T08:29:04.671Z,14.70
2022-12-25T08:31:37.164Z,17.00
2022-12-25T08:34:08.446Z,28.30
2022-12-25T08:36:37.709Z,20.00
2022-12-25T08:39:05.924Z,19.20
2022-12-25T08:41:37.179Z,17.90
2022-12-25T08:44:07.231Z,12.10
2022-12-25T08:46:36.852Z,15.70
2022-12-25T08:49:05.796Z,16.90
2022-12-25T08:51:34.435Z,18.00
2022-12-25T08:54:02.656Z,15.90
2022-12-25T08:56:31.253Z,16.90
2022-12-25T08:58:59.642Z,16.10
2022-12-25T09:01:29.190Z,14.00
2022-12-25T09:03:57.567Z,14.70
2022-12-25T09:06:25.821Z,16.70
2022-12-25T09:08:55.299Z,13.00
2022-12-25T09:11:24.326Z,11.90
2022-12-25T09:13:55.129Z,10.00
2022-12-25T09:16:23.776Z,8.80
2022-12-25T09:18:52.408Z,15.00
2022-12-25T09:21:20.577Z,13.70
2022-12-25T09:23:49.227Z,11.10
2022-12-25T09:26:18.941Z,12.30
2022-12-25T09:28:52.051Z,22.00
2022-12-25T09:33:51.151Z,16.60
2022-12-25T09:36:21.594Z,13.90
2022-12-25T09:38:49.775Z,20.90
2022-12-25T09:41:18.520Z,17.40
2022-12-25T09:44:10.615Z,15.40
2022-12-25T09:46:51.028Z,18.70
2022-12-25T09:49:54.194Z,18.30
2022-12-25T09:52:49.177Z,24.30
2022-12-25T09:55:20.840Z,10.40
2022-12-25T09:57:58.888Z,10.40
2022-12-25T10:00:41.601Z,13.50
2022-12-25T10:03:12.888Z,11.00
2022-12-25T10:05:53.486Z,15.30
2022-12-25T10:08:49.816Z,14.60
2022-12-25T10:11:42.697Z,12.20
2022-12-25T10:14:42.383Z,12.30
2022-12-25T10:17:33.344Z,15.90
2022-12-25T10:20:04.725Z,13.00
2022-12-25T10:22:44.575Z,13.50
2022-12-25T10:25:21.472Z,12.50
2022-12-25T10:27:54.474Z,13.10
2022-12-25T10:30:26.130Z,7.90
2022-12-25T10:32:57.862Z,6.20
2022-12-25T10:35:29.777Z,6.40
2022-12-25T10:38:02.396Z,5.90
2022-12-25T10:41:13.298Z,4.70
2022-12-25T10:43:51.861Z,7.60
2022-12-25T10:46:24.610Z,6.60
2022-12-25T10:49:03.131Z,7.60
2022-12-25T10:51:35.195Z,4.50
2022-12-25T10:54:21.688Z,8.30
2022-12-25T10:57:00.819Z,9.30
2022-12-25T10:59:43.543Z,10.60
2022-12-25T11:02:37.441Z,9.10
2022-12-25T11:05:25.812Z,10.00
2022-12-25T11:07:55.494Z,10.00
2022-12-25T11:10:32.902Z,14.10
2022-12-25T11:13:02.954Z,13.60
2022-12-25T11:15:42.681Z,11.60
2022-12-25T11:18:28.639Z,11.50
2022-12-25T11:21:00.106Z,11.10
2022-12-25T11:23:31.571Z,9.20
2022-12-25T11:26:05.854Z,9.70
2022-12-25T11:28:39.206Z,9.30
2022-12-25T11:31:15.916Z,10.30
2022-12-25T11:34:06.635Z,10.60
2022-12-25T11:36:48.543Z,9.00
2022-12-25T11:39:23.152Z,13.10
2022-12-25T11:42:05.989Z,27.10
2022-12-25T11:45:01.311Z,10.00
2022-12-25T11:47:54.533Z,8.30
2022-12-25T11:50:28.817Z,6.80
2022-12-25T11:53:02.124Z,6.10
2022-12-25T11:55:57.373Z,6.30
2022-12-25T11:58:36.482Z,3.80
2022-12-25T12:01:18.141Z,5.20
2022-12-25T12:03:46.425Z,4.60
2022-12-25T12:06:14.779Z,8.50
2022-12-25T12:08:43.853Z,5.40
2022-12-25T12:11:35.698Z,3.90
2022-12-25T12:14:23.229Z,6.90
2022-12-25T12:16:52.437Z,4.10
2022-12-25T12:19:29.778Z,6.00
2022-12-25T12:22:01.739Z,12.90
2022-12-25T12:24:37.039Z,7.30
2022-12-25T12:27:25.057Z,5.50
2022-12-25T12:29:57.717Z,7.50
2022-12-25T12:32:43.193Z,8.30
2022-12-25T12:35:22.088Z,9.90
2022-12-25T12:38:03.576Z,3.70
2022-12-25T12:40:36.072Z,9.80
2022-12-25T12:43:06.130Z,7.60
2022-12-25T12:45:38.414Z,8.40
2022-12-25T12:48:25.213Z,9.20
2022-12-25T12:51:11.105Z,10.50
2022-12-25T12:53:41.999Z,16.10
2022-12-25T12:56:19.877Z,14.40
2022-12-25T12:58:51.236Z,12.50
2022-12-25T13:01:45.140Z,8.00
2022-12-25T13:04:13.772Z,7.10
2022-12-25T13:06:58.259Z,8.70
2022-12-25T13:09:48.412Z,8.50
2022-12-25T13:12:18.095Z,8.20
2022-12-25T13:14:48.525Z,7.40
2022-12-25T13:17:24.194Z,6.40
2022-12-25T13:19:57.519Z,6.30
2022-12-25T13:22:36.687Z,3.50
2022-12-25T13:25:14.798Z,6.70
2022-12-25T13:27:43.139Z,5.00
2022-12-25T13:30:14.376Z,10.40
2022-12-25T13:32:45.958Z,5.00
2022-12-25T13:35:15.801Z,6.60
2022-12-25T13:37:45.346Z,9.30
2022-12-25T13:40:23.890Z,8.20
2022-12-25T13:43:00.879Z,8.70
2022-12-25T13:45:31.263Z,7.60
2022-12-25T13:48:14.740Z,7.10
2022-12-25T13:50:48.478Z,7.10
2022-12-25T13:53:18.140Z,5.10
2022-12-25T13:55:52.752Z,9.50
2022-12-25T13:58:31.239Z,5.30
2022-12-25T14:01:02.851Z,7.60
2022-12-25T14:03:41.316Z,9.50
2022-12-25T14:06:26.857Z,9.80
2022-12-25T14:08:58.031Z,10.80
2022-12-25T14:11:29.729Z,15.90
2022-12-25T14:14:04.352Z,32.00
2022-12-25T14:16:33.537Z,23.90
2022-12-25T14:19:03.080Z,16.80
2022-12-25T14:21:41.870Z,19.30
2022-12-25T14:24:15.542Z,13.10
2022-12-25T14:26:44.428Z,14.40
2022-12-25T14:29:19.762Z,24.90
2022-12-25T14:31:50.978Z,29.40
2022-12-25T14:34:23.233Z,27.80
2022-12-25T14:36:52.775Z,40.70
2022-12-25T14:39:29.077Z,44.20
2022-12-25T14:41:58.728Z,53.90
2022-12-25T14:44:40.429Z,38.50
2022-12-25T14:47:18.153Z,39.10
2022-12-25T14:49:47.810Z,29.70
2022-12-25T14:52:19.420Z,33.10
2022-12-25T14:55:02.242Z,36.70
2022-12-25T14:57:35.223Z,40.90
2022-12-25T15:00:08.101Z,32.90
2022-12-25T15:02:45.794Z,28.90
2022-12-25T15:05:27.683Z,30.60
2022-12-25T15:08:11.627Z,51.70
2022-12-25T15:13:33.173Z,42.80
2022-12-25T15:16:04.855Z,49.60
2022-12-25T15:18:39.872Z,56.00
2022-12-25T15:21:21.509Z,54.80
2022-12-25T15:23:49.790Z,60.90
2022-12-25T15:26:18.966Z,57.20
2022-12-25T15:28:47.556Z,52.90
2022-12-25T15:31:30.630Z,63.60
2022-12-25T15:34:06.584Z,62.40
2022-12-25T15:36:34.866Z,64.70
2022-12-25T15:39:04.424Z,61.10
2022-12-25T15:41:54.683Z,74.50
2022-12-25T15:44:25.218Z,73.20
2022-12-25T15:46:53.671Z,78.20
2022-12-25T15:49:21.864Z,73.00
2022-12-25T15:51:50.480Z,83.60
2022-12-25T15:54:19.243Z,78.30
2022-12-25T15:56:53.835Z,71.50
2022-12-25T15:59:23.821Z,89.90
2022-12-25T16:01:58.172Z,86.10
2022-12-25T16:04:28.338Z,87.90
2022-12-25T16:06:56.824Z,106.90
2022-12-25T16:09:26.694Z,102.50
2022-12-25T16:11:54.923Z,101.40
2022-12-25T16:14:24.145Z,87.20
2022-12-25T16:16:52.387Z,91.20
2022-12-25T16:19:20.866Z,87.10
2022-12-25T16:21:49.062Z,75.50
2022-12-25T16:24:17.672Z,57.10
2022-12-25T16:26:46.111Z,69.60
2022-12-25T16:29:15.032Z,70.30
2022-12-25T16:31:43.370Z,65.60
2022-12-25T16:34:11.697Z,70.20
2022-12-25T16:36:41.003Z,63.10
2022-12-25T16:39:09.143Z,51.50
2022-12-25T16:41:38.170Z,52.90
2022-12-25T16:44:09.631Z,56.20
2022-12-25T16:46:40.381Z,61.90
2022-12-25T16:49:09.245Z,111.80
2022-12-25T16:51:37.403Z,122.40
2022-12-25T16:54:07.111Z,136.90
2022-12-25T16:56:36.914Z,128.80
2022-12-25T16:59:04.991Z,129.80
2022-12-25T17:01:33.924Z,123.00
2022-12-25T17:04:02.527Z,112.50
2022-12-25T17:06:31.060Z,84.20
2022-12-25T17:09:00.661Z,105.90
2022-12-25T17:11:30.439Z,77.30
2022-12-25T17:14:02.321Z,56.50
2022-12-25T17:16:34.182Z,39.40
2022-12-25T17:19:10.952Z,38.40
2022-12-25T17:21:40.691Z,31.90
2022-12-25T17:24:09.387Z,33.00
2022-12-25T17:26:38.219Z,70.40
2022-12-25T17:29:06.674Z,67.10
2022-12-25T17:31:35.248Z,62.70
2022-12-25T17:34:05.094Z,65.90
2022-12-25T17:36:34.147Z,122.70
2022-12-25T17:39:05.393Z,95.00
2022-12-25T17:41:35.015Z,81.40
2022-12-25T17:44:04.197Z,89.90
2022-12-25T17:46:33.119Z,62.00
2022-12-25T17:49:01.884Z,57.80
2022-12-25T17:51:32.116Z,69.20
2022-12-25T17:54:03.341Z,64.10
2022-12-25T17:56:32.898Z,48.20
2022-12-25T17:59:06.818Z,55.00
2022-12-25T18:01:38.552Z,60.70
2022-12-25T18:04:07.194Z,64.00
2022-12-25T18:06:37.137Z,72.60
2022-12-25T18:09:06.630Z,72.40
2022-12-25T18:11:39.794Z,47.10
2022-12-25T18:14:12.329Z,41.80
2022-12-25T18:16:43.491Z,70.60
2022-12-25T18:19:13.097Z,49.20
2022-12-25T18:21:41.351Z,53.30
2022-12-25T18:24:10.432Z,62.10
2022-12-25T18:26:38.985Z,62.70
2022-12-25T18:29:07.952Z,59.50
2022-12-25T18:31:37.272Z,60.20
2022-12-25T18:34:05.706Z,59.80
2022-12-25T18:36:33.887Z,41.20
2022-12-25T18:39:02.510Z,68.80
2022-12-25T18:41:30.968Z,91.10
2022-12-25T18:44:00.091Z,109.10
2022-12-25T18:46:29.596Z,110.40
2022-12-25T18:48:58.034Z,125.80
2022-12-25T18:51:32.934Z,123.50
2022-12-25T18:54:04.733Z,96.90
2022-12-25T18:56:33.228Z,84.30
2022-12-25T18:59:01.701Z,81.20
2022-12-25T19:01:30.413Z,88.90
2022-12-25T19:04:04.591Z,89.80
2022-12-25T19:06:34.315Z,88.40
2022-12-25T19:09:09.263Z,86.90
2022-12-25T19:11:45.977Z,63.70
2022-12-25T19:14:15.628Z,78.50
2022-12-25T19:16:44.914Z,94.20
2022-12-25T19:19:14.641Z,113.90
2022-12-25T19:21:43.450Z,56.90
2022-12-25T19:24:11.577Z,107.00
2022-12-25T19:26:40.405Z,30.70
2022-12-25T19:29:08.538Z,28.80
2022-12-25T19:31:38.928Z,30.30
2022-12-25T19:34:09.159Z,41.40
2022-12-25T19:36:38.946Z,72.50
2022-12-25T19:39:08.744Z,96.40
2022-12-25T19:41:37.854Z,123.10
2022-12-25T19:44:06.848Z,104.40
2022-12-25T19:46:37.753Z,104.00
2022-12-25T19:49:08.052Z,115.10
2022-12-25T19:51:39.618Z,94.20
2022-12-25T19:54:11.531Z,100.10
2022-12-25T19:56:40.423Z,91.20
2022-12-25T19:59:08.846Z,93.00
2022-12-25T20:01:39.144Z,93.60
2022-12-25T20:04:09.809Z,84.60
2022-12-25T20:06:42.696Z,96.40
2022-12-25T20:09:21.084Z,79.20
2022-12-25T20:11:50.478Z,80.80
2022-12-25T20:14:19.830Z,77.30
2022-12-25T20:16:48.047Z,92.20
2022-12-25T20:19:16.823Z,76.40
2022-12-25T20:21:45.992Z,83.10
2022-12-25T20:24:14.221Z,90.70
2022-12-25T20:26:47.675Z,104.30
2022-12-25T20:29:16.724Z,91.20
2022-12-25T20:31:45.142Z,72.50
2022-12-25T20:34:13.379Z,62.60
2022-12-25T20:36:45.399Z,75.10
2022-12-25T20:39:14.334Z,138.90
2022-12-25T20:41:45.857Z,79.80
2022-12-25T20:44:16.362Z,114.70
2022-12-25T20:46:44.419Z,115.40
2022-12-25T20:49:13.895Z,122.00
2022-12-25T20:51:44.068Z,129.60
2022-12-25T20:54:14.040Z,130.40
2022-12-25T20:56:42.222Z,124.20
2022-12-25T20:59:12.056Z,155.30
2022-12-25T21:01:42.350Z,150.70
2022-12-25T21:04:16.029Z,123.00
2022-12-25T21:06:44.765Z,119.00
2022-12-25T21:09:13.427Z,126.60
2022-12-25T21:11:41.624Z,136.50
2022-12-25T21:14:11.340Z,142.10
2022-12-25T21:16:39.645Z,134.60
2022-12-25T21:19:08.041Z,130.60
2022-12-25T21:21:36.362Z,139.70
2022-12-25T21:24:05.134Z,122.60
2022-12-25T21:26:33.166Z,102.00
2022-12-25T21:29:04.567Z,122.10
2022-12-25T21:31:56.061Z,106.50
2022-12-25T21:34:24.269Z,97.20
2022-12-25T21:36:52.912Z,89.70
2022-12-25T21:39:22.076Z,91.30
2022-12-25T21:41:50.232Z,87.80
2022-12-25T21:44:19.065Z,83.40
2022-12-25T21:46:47.231Z,95.20
2022-12-25T21:49:35.591Z,90.40
2022-12-25T21:52:09.978Z,93.80
2022-12-25T21:54:38.368Z,140.30
2022-12-25T21:57:06.623Z,170.20
2022-12-25T21:59:35.930Z,98.50
2022-12-25T22:02:11.703Z,109.90
2022-12-25T22:04:40.322Z,124.30
2022-12-25T22:07:19.201Z,96.80
2022-12-25T22:09:49.947Z,102.30
2022-12-25T22:12:39.865Z,102.00
2022-12-25T22:15:10.504Z,77.10
2022-12-25T22:18:00.063Z,82.50
2022-12-25T22:20:34.732Z,82.30
2022-12-25T22:23:03.233Z,88.00
2022-12-25T22:25:32.947Z,78.80
2022-12-25T22:28:01.143Z,68.10
2022-12-25T22:30:30.420Z,59.70
2022-12-25T22:32:58.865Z,51.80
2022-12-25T22:35:27.125Z,74.70
2022-12-25T22:37:56.007Z,73.50
2022-12-25T22:40:24.461Z,54.10
2022-12-25T22:42:56.797Z,52.30
2022-12-25T22:45:24.991Z,60.40
2022-12-25T22:47:53.240Z,71.60
2022-12-25T22:50:21.677Z,56.00
2022-12-25T22:52:49.819Z,52.00
2022-12-25T22:55:19.455Z,67.90
2022-12-25T22:57:49.201Z,56.30
2022-12-25T23:00:17.487Z,47.80
2022-12-25T23:02:46.262Z,52.80
2022-12-25T23:05:14.532Z,51.10
2022-12-25T23:07:42.917Z,58.80
2022-12-25T23:10:11.701Z,56.40
2022-12-25T23:12:58.601Z,64.20
2022-12-25T23:15:28.207Z,68.20
2022-12-25T23:18:15.226Z,63.40
2022-12-25T23:21:03.076Z,66.60
2022-12-25T23:23:50.239Z,110.50
2022-12-25T23:26:20.411Z,257.20
2022-12-25T23:29:07.521Z,102.10
2022-12-25T23:31:38.459Z,93.90
2022-12-25T23:34:08.170Z,84.70
2022-12-25T23:36:36.891Z,83.40
2022-12-25T23:39:09.412Z,80.50
2022-12-25T23:41:40.605Z,72.60
2022-12-25T23:44:10.807Z,73.50
2022-12-25T23:46:39.887Z,73.70
2022-12-25T23:49:08.796Z,81.00
2022-12-25T23:51:44.857Z,83.70
2022-12-25T23:54:15.717Z,77.90
2022-12-25T23:56:44.280Z,67.70
2022-12-25T23:59:13.274Z,66.90
